• Join FlightAware (Why Join?)
  • Login
  • US Flag 
09:42AM EDT


 

Airport Tracker/Info


-or-


 

Live Flight TrackerFlight Track Log ✈ SWA1844 ✈ 01-May-2013 ✈ KPHX - KSEA

Flight Track Log - Related Links

Times and Time Zones

All times are in EDT time to prevent confusion due to time zone crossing. See the SWA1844 flight status page for this flight to view local times or setup timezone preferences in your user account.

Time Position Orientation Groundspeed Altitude Reporting Facility
EDT Latitude Longitude Course Direction KTS MPH feet Rate Location/Type
12:38AM 33.4317 -112.0775 268° West 165 190 4,400  Level Albuquerque Center
12:39AM 33.4300 -112.1464 268° West 202 232 7,700 3,180 Climbing Albuquerque Center
12:40AM 33.4869 -112.1525 355° North 266 306 10,900 2,820 Climbing Albuquerque Center
12:41AM 33.5628 -112.0967 32° Northeast 330 380 13,500 3,240 Climbing Albuquerque Center
12:42AM 33.6456 -112.0358 31° Northeast 349 402 17,500 3,360 Climbing Albuquerque Center
12:43AM 33.7456 -112.0186 North 371 427 20,400 3,000 Climbing Albuquerque Center
12:44AM 33.8544 -112.0256 357° North 387 445 23,600 3,000 Climbing Albuquerque Center
12:45AM 33.9661 -112.0319 357° North 394 453 26,500 2,640 Climbing Albuquerque Center
12:46AM 34.0817 -112.0381 357° North 407 468 29,000 2,160 Climbing Albuquerque Center
12:47AM 34.2008 -112.0456 357° North 421 484 31,000 2,280 Climbing Albuquerque Center
12:48AM 34.3211 -112.0525 357° North 430 495 33,700 2,580 Climbing Albuquerque Center
12:49AM 34.4367 -112.0592 357° North 419 482 36,300 2,100 Climbing Albuquerque Center
12:50AM 34.5456 -112.0661 357° North 401 461 38,000 780 Climbing Albuquerque Center
12:51AM 34.6575 -112.0714 358° North 399 459 38,000  Level Albuquerque Center
12:52AM 34.7697 -112.0786 357° North 402 463 38,000  Level Albuquerque Center
12:53AM 34.9036 -112.0858 357° North 402 463 38,000  Level Albuquerque Center
12:54AM 35.0150 -112.0917 358° North 403 464 38,000  Level Albuquerque Center
12:55AM 35.1258 -112.0978 357° North 403 464 38,000  Level Albuquerque Center
12:56AM 35.2372 -112.1039 357° North 403 464 38,000  Level Albuquerque Center
12:57AM 35.3481 -112.1114 357° North 403 464 38,000  Level Albuquerque Center
12:58AM 35.4569 -112.1161 358° North 399 459 38,000  Level Albuquerque Center
12:59AM 35.5650 -112.1222 357° North 394 453 38,000  Level Albuquerque Center
01:00AM 35.6728 -112.1286 357° North 392 451 38,000  Level Albuquerque Center
01:01AM 35.7811 -112.1353 357° North 391 450 38,000  Level Albuquerque Center
01:02AM 35.8858 -112.1553 351° North 387 445 38,000  Level Albuquerque Center
01:03AM 35.9783 -112.2147 333° Northwest 384 442 38,000  Level Albuquerque Center
01:04AM 36.0897 -112.2839 333° Northwest 379 436 38,000  Level Albuquerque Center
01:05AM 36.1536 -112.3258 332° Northwest 376 433 38,000  Level Salt Lake Center
01:05AM 36.1908 -112.3475 335° Northwest 375 432 38,000  Level Los Angeles Center
01:06AM 36.2831 -112.4083 332° Northwest 375 432 38,000  Level Los Angeles Center
01:07AM 36.3756 -112.4681 333° Northwest 374 430 38,000  Level Los Angeles Center
01:08AM 36.4683 -112.5281 333° Northwest 375 432 38,000  Level Los Angeles Center
01:09AM 36.5608 -112.5867 333° Northwest 375 432 38,000  Level Los Angeles Center
01:10AM 36.6533 -112.6481 332° Northwest 376 433 38,000  Level Los Angeles Center
01:11AM 36.7467 -112.7086 333° Northwest 378 435 38,000  Level Los Angeles Center
01:12AM 36.8392 -112.7694 332° Northwest 376 433 38,000  Level Los Angeles Center
01:13AM 36.9503 -112.8436 332° Northwest 377 434 38,000  Level Los Angeles Center
01:15AM 37.0442 -112.9047 333° Northwest 379 436 38,000  Level Los Angeles Center
01:16AM 37.1369 -112.9672 332° Northwest 378 435 38,000  Level Los Angeles Center
01:16AM 37.1917 -113.0028 333° Northwest 375 432 38,000  Level Salt Lake Center
01:17AM 37.2842 -113.0656 332° Northwest 376 433 38,000  Level Salt Lake Center
01:18AM 37.3767 -113.1267 332° Northwest 374 430 38,000  Level Salt Lake Center
01:19AM 37.4697 -113.1881 332° Northwest 373 429 38,000  Level Salt Lake Center
01:20AM 37.5644 -113.2525 332° Northwest 381 438 38,000  Level Salt Lake Center
01:21AM 37.6586 -113.3158 332° Northwest 382 440 38,000  Level Salt Lake Center
01:22AM 37.7528 -113.3789 332° Northwest 381 438 38,000  Level Salt Lake Center
01:23AM 37.8450 -113.4422 332° Northwest 378 435 38,000  Level Salt Lake Center
01:24AM 37.9378 -113.5044 332° Northwest 377 434 38,000  Level Salt Lake Center
01:25AM 38.0244 -113.5756 327° Northwest 372 428 38,000  Level Salt Lake Center
01:26AM 38.1114 -113.6469 327° Northwest 372 428 38,000  Level Salt Lake Center
01:27AM 38.1989 -113.7161 328° Northwest 371 427 38,000  Level Salt Lake Center
01:28AM 38.2856 -113.7878 327° Northwest 371 427 38,000  Level Salt Lake Center
01:29AM 38.3722 -113.8600 327° Northwest 372 428 38,000  Level Salt Lake Center
01:30AM 38.4606 -113.9314 328° Northwest 377 434 38,000  Level Salt Lake Center
01:31AM 38.5472 -114.0069 326° Northwest 376 433 38,000  Level Salt Lake Center
01:32AM 38.6353 -114.0781 328° Northwest 375 432 38,000  Level Salt Lake Center
01:33AM 38.7222 -114.1497 327° Northwest 373 429 38,000  Level Salt Lake Center
01:34AM 38.8253 -114.2375 326° Northwest 371 427 38,000  Level Salt Lake Center
01:35AM 38.9108 -114.3097 327° Northwest 370 426 38,000  Level Salt Lake Center
01:36AM 38.9964 -114.3811 327° Northwest 367 422 38,000  Level Salt Lake Center
01:37AM 39.0817 -114.4547 326° Northwest 368 423 38,000  Level Salt Lake Center
01:38AM 39.1672 -114.5278 327° Northwest 370 426 38,000  Level Salt Lake Center
01:39AM 39.2422 -114.5961 325° Northwest 366 421 38,000  Level Salt Lake Center
01:40AM 39.3372 -114.6761 327° Northwest 366 421 38,000  Level Salt Lake Center
01:41AM 39.4181 -114.7458 326° Northwest 366 421 38,000  Level Salt Lake Center
01:42AM 39.5019 -114.8119 329° Northwest 368 423 38,000  Level Salt Lake Center
01:43AM 39.5958 -114.8947 326° Northwest 365 420 38,000  Level Salt Lake Center
01:44AM 39.6761 -114.9644 326° Northwest 363 418 38,000  Level Salt Lake Center
01:45AM 39.7578 -115.0342 327° Northwest 366 421 38,000  Level Salt Lake Center
01:46AM 39.8528 -115.1175 326° Northwest 367 422 38,000  Level Salt Lake Center
01:47AM 39.9331 -115.1875 326° Northwest 366 421 38,000  Level Salt Lake Center
01:48AM 40.0142 -115.2589 326° Northwest 366 421 38,000  Level Salt Lake Center
01:49AM 40.1086 -115.3422 326° Northwest 366 421 38,000  Level Salt Lake Center
01:51AM 40.1897 -115.4136 326° Northwest 366 421 38,000  Level Salt Lake Center
01:52AM 40.2700 -115.4858 326° Northwest 365 420 38,000  Level Salt Lake Center
01:53AM 40.3656 -115.5692 326° Northwest 368 423 38,000  Level Salt Lake Center
01:54AM 40.4464 -115.6411 326° Northwest 367 422 38,000  Level Salt Lake Center
01:55AM 40.5242 -115.7131 325° Northwest 362 417 38,000  Level Salt Lake Center
01:56AM 40.6056 -115.7844 326° Northwest 366 421 38,000  Level Salt Lake Center
01:57AM 40.6978 -115.8678 326° Northwest 362 417 38,000  Level Salt Lake Center
01:58AM 40.7792 -115.9383 327° Northwest 365 420 38,000  Level Salt Lake Center
01:59AM 40.8586 -116.0108 325° Northwest 364 419 38,000  Level Salt Lake Center
02:00AM 40.9517 -116.0958 325° Northwest 365 420 38,000  Level Salt Lake Center
02:01AM 41.0300 -116.1667 326° Northwest 360 414 38,000  Level Salt Lake Center
02:02AM 41.1089 -116.2386 326° Northwest 360 414 38,000  Level Salt Lake Center
02:03AM 41.2031 -116.3275 325° Northwest 368 423 38,000  Level Salt Lake Center
02:04AM 41.2819 -116.4003 325° Northwest 364 419 38,000  Level Salt Lake Center
02:05AM 41.3614 -116.4725 326° Northwest 362 417 38,000  Level Salt Lake Center
02:06AM 41.4547 -116.5597 325° Northwest 369 425 38,000  Level Salt Lake Center
02:07AM 41.5328 -116.6314 326° Northwest 359 413 38,000  Level Salt Lake Center
02:08AM 41.6108 -116.7044 325° Northwest 359 413 38,000  Level Salt Lake Center
02:09AM 41.7025 -116.7900 325° Northwest 360 414 38,000  Level Salt Lake Center
02:10AM 41.7803 -116.8606 326° Northwest 356 410 38,000  Level Salt Lake Center
02:11AM 41.8578 -116.9350 324° Northwest 357 411 38,000  Level Salt Lake Center
02:12AM 41.9494 -117.0197 326° Northwest 357 411 38,000  Level Salt Lake Center
02:13AM 42.0278 -117.0931 325° Northwest 359 413 38,000  Level Salt Lake Center
02:14AM 42.1069 -117.1683 325° Northwest 363 418 38,000  Level Salt Lake Center
02:15AM 42.1858 -117.2442 325° Northwest 364 419 38,000  Level Salt Lake Center
02:16AM 42.2719 -117.3264 325° Northwest 363 418 38,000  Level Salt Lake Center
02:17AM 42.3636 -117.4136 325° Northwest 361 415 38,000  Level Salt Lake Center
02:18AM 42.4428 -117.4906 324° Northwest 364 419 38,000  Level Salt Lake Center
02:19AM 42.5222 -117.5672 325° Northwest 366 421 38,000  Level Salt Lake Center
02:20AM 42.6017 -117.6436 325° Northwest 366 421 38,000  Level Salt Lake Center
02:21AM 42.6942 -117.7336 324° Northwest 367 422 38,000  Level Salt Lake Center
02:22AM 42.7725 -117.8106 324° Northwest 363 418 38,000  Level Salt Lake Center
02:23AM 42.8522 -117.8881 325° Northwest 366 421 38,000  Level Salt Lake Center
02:24AM 42.9450 -117.9786 324° Northwest 367 422 38,000  Level Salt Lake Center
02:25AM 43.0247 -118.0575 324° Northwest 369 425 38,000  Level Salt Lake Center
02:26AM 43.1039 -118.1350 324° Northwest 367 422 38,000  Level Salt Lake Center
02:27AM 43.1947 -118.2264 324° Northwest 362 417 38,000  Level Salt Lake Center
02:28AM 43.2736 -118.3019 325° Northwest 363 418 38,000  Level Salt Lake Center
02:29AM 43.3547 -118.3836 324° Northwest 363 418 38,000  Level Salt Lake Center
02:30AM 43.4361 -118.4672 323° Northwest 364 419 38,000  Level Salt Lake Center
02:31AM 43.5178 -118.5472 325° Northwest 362 417 38,000  Level Salt Lake Center
02:32AM 43.5994 -118.6303 324° Northwest 363 418 38,000  Level Salt Lake Center
02:33AM 43.6647 -118.6953 324° Northwest 364 419 38,000  Level Salt Lake Center
02:34AM 43.7633 -118.7944 324° Northwest 365 420 38,000  Level Salt Lake Center
02:35AM 43.8444 -118.8783 323° Northwest 366 421 38,000  Level Salt Lake Center
02:35AM 43.8878 -118.9236 323° Northwest 364 419 38,000  Level Seattle Center
02:36AM 43.9761 -119.0108 325° Northwest 367 422 38,000  Level Seattle Center
02:37AM 44.0581 -119.0961 323° Northwest 368 423 38,000  Level Seattle Center
02:38AM 44.1439 -119.1717 328° Northwest 367 422 38,000  Level Seattle Center
02:39AM 44.2425 -119.2186 341° North 373 429 38,000  Level Seattle Center
02:40AM 44.3389 -119.2675 340° North 371 427 38,000  Level Seattle Center
02:41AM 44.4358 -119.3161 340° North 371 427 38,000  Level Seattle Center
02:42AM 44.5311 -119.3650 340° North 368 423 38,000  Level Seattle Center
02:43AM 44.6267 -119.4136 340° North 367 422 38,000  Level Seattle Center
02:44AM 44.7228 -119.4625 340° North 368 423 38,000  Level Seattle Center
02:45AM 44.8183 -119.5119 340° North 369 425 38,000  Level Seattle Center
02:46AM 44.9139 -119.5606 340° North 368 423 38,000  Level Seattle Center
02:47AM 45.0094 -119.6108 340° North 371 427 38,000  Level Seattle Center
02:48AM 45.1053 -119.6597 340° North 372 428 38,000  Level Seattle Center
02:49AM 45.2017 -119.7114 339° North 374 430 38,000  Level Seattle Center
02:50AM 45.2994 -119.7625 340° North 377 434 38,000  Level Seattle Center
02:51AM 45.3986 -119.8136 340° North 380 437 38,000  Level Seattle Center
02:52AM 45.4975 -119.8658 340° North 381 438 38,000  Level Seattle Center
02:53AM 45.5975 -119.9189 340° North 385 443 38,000  Level Seattle Center
02:54AM 45.6978 -119.9706 340° North 384 442 38,000  Level Seattle Center
02:55AM 45.7969 -120.0236 340° North 382 440 38,000  Level Seattle Center
02:56AM 45.8978 -120.0800 339° North 390 449 38,000  Level Seattle Center
02:57AM 46.0178 -120.1436 340° North 387 445 38,000  Level Seattle Center
02:58AM 46.1189 -120.1986 339° North 388 447 38,000  Level Seattle Center
03:00AM 46.2197 -120.2528 340° North 389 448 38,000 -120 Level Seattle Center
03:01AM 46.3211 -120.3092 339° North 391 450 37,800 -1,440 Descending Seattle Center
03:02AM 46.4203 -120.3633 339° North 383 441 35,200 -2,520 Descending Seattle Center
03:03AM 46.5194 -120.4181 339° North 381 438 32,800 -2,400 Descending Seattle Center
03:04AM 46.5978 -120.5047 323° Northwest 363 418 30,500 -2,280 Descending Seattle Center
03:05AM 46.6539 -120.6250 304° West 357 411 28,300 -2,160 Descending Seattle Center
03:06AM 46.7089 -120.7394 305° West 347 399 26,200 -2,160 Descending Seattle Center
03:07AM 46.7633 -120.8539 305° West 342 394 24,000 -2,280 Descending Seattle Center
03:08AM 46.8167 -120.9669 305° West 339 390 21,700 -2,160 Descending Seattle Center
03:09AM 46.8681 -121.0767 304° West 333 383 19,700 -1,980 Descending Seattle Center
03:10AM 46.9189 -121.1844 305° West 326 375 17,800 -1,800 Descending Seattle Center
03:11AM 46.9669 -121.2939 303° West 322 371 16,100 -1,920 Descending Seattle Center
03:11AM 47.0167 -121.3928 306° West 316 364 14,100 -2,040 Descending Seattle Center
03:13AM 47.0647 -121.4964 304° West 309 356 12,100 -1,320 Descending Seattle Center
03:14AM 47.1019 -121.5986 298° West 290 334 11,400 -1,200 Descending Seattle Center
03:15AM 47.1242 -121.7083 287° West 284 327 9,700 -1,740 Descending Seattle Center
03:15AM 47.1419 -121.7850 289° West 279 321 8,600 -1,740 Descending Seattle Center
03:16AM 47.1531 -121.8356 288° West 277 319 7,900 -1,500 Descending Seattle Center
03:16AM 47.1653 -121.8917 288° West 275 316 7,100 -840 Descending Seattle Center
03:17AM 47.1781 -121.9489 288° West 271 312 7,000 -420 Descending Seattle Center
03:17AM 47.1900 -121.9944 291° West 269 310 6,700 -1,320 Descending Seattle Center
03:18AM 47.2042 -122.0586 288° West 266 306 5,700 -1,500 Descending Seattle Center
03:18AM 47.2150 -122.0972 292° West 268 308 5,200 -780 Descending Seattle Center
03:19AM 47.2261 -122.1444 289° West 264 304 5,000 -900 Descending Seattle Center
03:19AM 47.2364 -122.1925 288° West 248 285 4,300 -1,200 Descending Seattle Center
03:20AM 47.2450 -122.2353 287° West 231 266 3,800 -1,200 Descending Seattle Center
03:20AM 47.2572 -122.2811 291° West 232 267 3,100 -1,140 Descending Seattle Center
03:21AM 47.2828 -122.3058 327° Northwest 210 242 2,700 -900 Descending Seattle Center
03:21AM 47.3078 -122.3086 356° North 193 222 2,200 -900 Descending Seattle Center
03:22AM 47.3322 -122.3081 North 158 182 1,800 -540 Descending Seattle Center
03:22AM 47.3492 -122.3086 359° North 151 174 1,700 -240 Descending Seattle Center
03:23AM 47.3661 -122.3092 359° North 106 122 1,600 -420 Descending Seattle Center
03:23AM 47.3806 -122.3083 North 117 135 1,300 -540 Descending Seattle Center
03:24AM 47.3969 -122.3086 359° North 108 124 1,100 -540 Descending Seattle Center
03:24AM 47.4108 -122.3086 360° North 111 128 800 -600 Descending Seattle Center
03:25AM 47.4258 -122.3089 359° North 111 128 500 -420 Descending Seattle Center
03:25AM 47.4375 -122.3092 359° North 114 131 400 -120 Descending Seattle Center
03:26AM 47.4469 -122.3067 10° North 95 109 400  Level Seattle Center